Federico Lombardi

Scout - Vélez
23 Apr 2028
Sonntag
Verarbeitung

Persönlichkeit

Anpassungsfähigkeit (15) Ehrgeiz (11) Kontroverse (17) Loyalität (3) Druck (6) Professionalität (5) Fairness (9) Temperament (6)

Profil

Trainerstil Demokratisch
Lizenz Kontinentale B
Entschlossenheit 11
Menschenführung 14
Motivation 12
Disziplin 12
Arbeitszufriedenheit
100%
Ermüdung
0%
Rolle Scout
Gehalt 91.1K p/W
Vertrag 14.03.2029

Leistung

Verhalten Gut
Trainingseffektivität
58%
Spielerentwicklung
50%
Verletzungsprävention
55%
Taktische Umsetzung
55%

Letzte Ereignisse

Nahm an einer Scouting-Besprechung teil jetzt
Nahm an einer Scouting-Besprechung teil 7T her
Nahm an einer Scouting-Besprechung teil 7T her
Nahm an einer Scouting-Besprechung teil 7T her
Nahm an einer Scouting-Besprechung teil 14T her
Nahm an einer Scouting-Besprechung teil 14T her
Nahm an einer Scouting-Besprechung teil 14T her
Nahm an einer Scouting-Besprechung teil 21T her

Aktuell beobachtet

151
Spieler Verein Status Fähigkeit Vertrauen Beobachtet Zuletzt beobachtet Letzte Stimme
Rico Henry River Plate Aktiv 143 / 142 40% 1 30.11.2027 -
Jherson Mosquera Newell's Old Boys Aktiv 126 / 130 40% 1 30.11.2027 -
Hosea Michael Remo Stars Aktiv 91 / 86 40% 3 08.11.2027 -
Juan Camilo Córdoba Deportivo Pereira Aktiv 86 / 96 40% 1 08.11.2027 -
Josh Nichols Oldham Athletic Aktiv 118 / 121 40% 1 08.11.2027 -
Yury Oyarzo Racing Aktiv 92 / 93 40% 3 05.11.2027 -
Victor Hernandez Santa Fe Aktiv 121 / 126 40% 4 05.11.2027 -
Óscar Hinojosa Metropolitanos Aktiv 82 / 89 40% 5 03.11.2027 -
Ayden Heaven Portsmouth Aktiv 146 / 146 40% 1 03.11.2027 Mehr Infos nötig
Gideon Manaseh Ikorodu City Aktiv 93 / 105 40% 5 01.11.2027 -
Trey Nyoni Rotherham United Aktiv 138 / 157 40% 1 01.11.2027 -
Vinícius Lira São Paulo Aktiv 116 / 131 40% 3 31.10.2027 -
Ignacio Fernández Boston River Aktiv 92 / 95 40% 2 31.10.2027 -
Halam Loboa Sevilla Aktiv 122 / 115 40% 1 31.10.2027 -
Joel Ezra Enyimba Aktiv 95 / 88 40% 3 28.10.2027 -
Nikolay Sotnikov Arsenal Dzerzhinsk Aktiv 84 / 93 40% 2 28.10.2027 -
Honest Ahanor Atalanta Aktiv 136 / 149 40% 1 28.10.2027 -
Mirza Ćatović VfB Stuttgart Aktiv 119 / 122 40% 1 27.10.2027 -
Vitor Reis Manchester City Aktiv 139 / 156 40% 2 25.10.2027 -
Adam Aznou Everton Aktiv 129 / 122 40% 4 25.10.2027 -
Matias Siltanen Malmo FF Aktiv 123 / 119 40% 2 24.10.2027 -
Agustín De la Cuesta Racing Aktiv 110 / 109 40% 2 24.10.2027 -
Jan Cedilnik Chikhura Aktiv 85 / 75 40% 2 21.10.2027 -
Diego Vargas Universidad de Concepcion Aktiv 92 / 91 40% 1 21.10.2027 -
Francisco Machis Llaneros Aktiv 84 / 98 40% 2 19.10.2027 -
Sebastián Caballero Barranquilla Aktiv 91 / 95 40% 2 18.10.2027 -
Juan Diego Perdomo Depor Aktiv 87 / 98 40% 2 18.10.2027 -
Tiago Gordillo San Miguel Aktiv 85 / 86 40% 1 17.10.2027 -
Facundo Balatti Penarol Aktiv 103 / 104 40% 4 16.10.2027 -
Ivan Borges Defensores Aktiv 85 / 82 40% 3 16.10.2027 -
Onyeuche Ujunwa Ikorodu City Aktiv 88 / 81 40% 1 16.10.2027 -
Samuel Martín Millonarios Aktiv 108 / 121 40% 1 15.10.2027 -
Jorge Moreno Athletic Bilbao Aktiv 127 / 137 40% 2 27.09.2027 -
Mohamed Moussa Koïta Mathare United Aktiv 93 / 112 40% 1 24.09.2027 -
Alejandro Leiva Patronato Aktiv 94 / 111 40% 1 23.09.2027 -
Juan David Sánchez Caracas Aktiv 99 / 113 40% 1 21.09.2027 -
Josh King Newcastle United Aktiv 145 / 148 40% 1 17.09.2027 -
Sebastián Ramírez Aguilas Doradas Aktiv 106 / 116 40% 2 16.09.2027 -
Ángel Aguayo Sol de America Aktiv 91 / 92 40% 2 15.09.2027 -
Colin Guske Orlando City Aktiv 92 / 98 40% 1 12.09.2027 -
Juan Pablo Arregue Jaguares Aktiv 86 / 91 40% 1 10.09.2027 -
Nazareno Roselli Defensa y Justicia Aktiv 112 / 125 40% 1 09.09.2027 -
Eliás Montiel Borussia Dortmund Aktiv 134 / 131 40% 1 08.09.2027 -
Mohamed Bolivar Barranquilla Aktiv 90 / 89 40% 1 08.09.2027 -
Matías Canedo Rampla Juniors Aktiv 85 / 91 40% 1 06.09.2027 -
Filippo Distefano Empoli Aktiv 121 / 122 40% 1 12.07.2027 -
Stefano Di Mario Virtus Entella Aktiv 120 / 138 40% 1 12.07.2027 -
Mateo Díaz Chaves Argentinos Juniors Aktiv 110 / 113 42% 1 / 1m 21.04.2027 -
Matías Noble Almirante Brown Aktiv 115 / 115 52% 1 / 1m 21.04.2027 -
José Bernal Ethnikos Achnas Aktiv 99 / 94 40% 1 08.12.2026 -
Job Ochieng Real Sociedad Aktiv 103 / 105 40% 1 08.12.2026 -
Amar Memić Viktoria Plzen Aktiv 125 / 141 40% 3 30.11.2026 -
Juan Bisanz Huracán Aktiv 124 / 137 40% 4 30.11.2026 -
Edu Expósito Espanyol Aktiv 145 / 148 40% 5 29.11.2026 -
Luis Chávez Dinamo Moscow Aktiv 131 / 135 40% 1 29.11.2026 -
Manu Morlanes Mallorca Aktiv 130 / 131 40% 5 27.11.2026 -
Majid Jahanbakhsh Rah Ahan Aktiv 135 / 115 40% 2 25.11.2026 -
Jens Petter Hauge Bodo/Glimt Aktiv 143 / 138 40% 1 25.11.2026 -
Luke McNally Bristol City Aktiv 131 / 115 40% 2 23.11.2026 -
Álex Berenguer Lokomotiv Moscow Aktiv 154 / 135 40% 5 17.11.2026 -
Reda Khadra Qarabag Aktiv 125 / 137 40% 1 17.11.2026 -
Aidan Morris Middlesbrough Aktiv 131 / 133 40% 1 16.11.2026 -
Wendel Zenit Aktiv 147 / 146 40% 1 16.11.2026 -
Bradley Zwane SuperSport United Aktiv 113 / 101 40% 1 16.11.2026 -
Juan Pablo Gallego Fehervar Aktiv 109 / 120 40% 1 16.11.2026 -
Ángel Correa River Plate Aktiv 146 / 132 40% 3 13.11.2026 -
Rasmus Kristensen FC Midtjylland Aktiv 146 / 149 40% 1 13.11.2026 -
Azor Matusiwa Ipswich Town Aktiv 130 / 142 40% 1 13.11.2026 -
Oswin Appollis Orlando Pirates Aktiv 124 / 115 40% 1 12.11.2026 -
Franco Zapiola Platense Aktiv 128 / 125 40% 1 12.11.2026 -
James Justin Leeds United Aktiv 140 / 148 40% 1 10.11.2026 -
Anel Ahmedhodžić Burnley Aktiv 133 / 137 40% 1 10.11.2026 -
Marcelo Allende Mamelodi Sundowns Aktiv 125 / 122 40% 4 07.11.2026 -
Steven Bergwijn Al-Ittihad Aktiv 150 / 150 40% 1 06.11.2026 -
Ronnie Edwards Queens Park Rangers Aktiv 124 / 120 40% 1 05.11.2026 -
Dara O'Shea Ipswich Town Aktiv 138 / 136 40% 1 05.11.2026 -
Ferland Mendy Real Madrid Aktiv 146 / 146 40% 4 04.11.2026 -
Kevin Zenón Boca Juniors Aktiv 128 / 124 40% 1 04.11.2026 -
Marcelino Moreno Lanús Aktiv 134 / 124 40% 1 04.11.2026 -
Alexey Miranchuk Atlanta United FC Aktiv 143 / 132 40% 1 01.11.2026 -
Pedrinho Shakhtar Aktiv 139 / 121 40% 1 31.10.2026 -
Malcom Al Jazira Aktiv 151 / 149 40% 1 31.10.2026 Mehr Infos nötig
Kenny Tete Fulham Aktiv 144 / 140 40% 1 30.10.2026 -
Galeno Al-Ahli Aktiv 150 / 143 40% 1 29.10.2026 -
Max Bird Birmingham Aktiv 131 / 142 40% 2 27.10.2026 -
Nobel Mendy Hull City Aktiv 126 / 145 40% 1 27.10.2026 -
Yoane Wissa Newcastle United Aktiv 147 / 135 40% 1 22.10.2026 -
Agustín Paz Progreso Aktiv 111 / 121 40% 2 21.10.2026 -
Brooke Norton-Cuffy Hull City Aktiv 138 / 134 40% 1 21.10.2026 -
Zian Flemming Ipswich Town Aktiv 130 / 144 40% 1 21.10.2026 -
Toti Wolverhampton Aktiv 134 / 138 40% 1 19.10.2026 -
Joachim Andersen Fulham Aktiv 149 / 150 40% 2 17.10.2026 -
Florentino Luís Ipswich Town Aktiv 145 / 148 40% 1 16.10.2026 -
Hidemasa Morita Hull City Aktiv 148 / 130 40% 1 16.10.2026 -
Khuliso Mudau Mamelodi Sundowns Aktiv 134 / 128 40% 1 15.10.2026 -
Tariq Lamptey Queens Park Rangers Aktiv 133 / 124 40% 1 13.10.2026 -
Ayrton Costa Boca Juniors Aktiv 132 / 138 40% 1 12.10.2026 -
Japhet Tanganga Sheffield United Aktiv 128 / 119 40% 1 11.10.2026 -
Ander Guevara Racing Genk Aktiv 140 / 151 40% 3 09.10.2026 -
Sergi Cardona KAA Gent Aktiv 141 / 137 40% 3 09.10.2026 -
Santiago Toloza O'Higgins Aktiv 123 / 123 40% 1 09.10.2026 -
Alan Lescano Argentinos Juniors Aktiv 127 / 130 40% 1 09.10.2026 -
Cheikh Sabaly Vancouver Whitecaps Aktiv 128 / 126 40% 1 09.10.2026 -
Rubén Duarte Pumas UNAM Aktiv 130 / 128 40% 3 08.10.2026 -
Kevin Castañeda Guadalajara Aktiv 117 / 127 40% 1 07.10.2026 -
Bruno Larregui Juventud Aktiv 115 / 128 40% 1 07.10.2026 -
Justo Giani Umraniyespor Aktiv 126 / 134 40% 1 07.10.2026 -
Willer Ditta Cruz Azul Aktiv 139 / 132 40% 1 06.10.2026 -
Jesús Orozco Chiquete Cruz Azul Aktiv 131 / 127 40% 1 06.10.2026 -
Nico Elvedi Leeds United Aktiv 139 / 119 40% 1 10.09.2026 -
Diego Lainez Tigres Aktiv 129 / 119 40% 2 07.09.2026 -
Ezequiel Cañete Huachipato Aktiv 114 / 117 40% 1 07.09.2026 -
Emiliano Álvarez Progreso Aktiv 117 / 111 40% 1 07.09.2026 -
Carlos Álvarez Club America Aktiv 132 / 129 40% 1 05.09.2026 -
Richard Ledezma Guadalajara Aktiv 136 / 140 40% 3 04.09.2026 -
Carlos Rodríguez Cruz Azul Aktiv 136 / 137 40% 4 03.09.2026 -
Bryan González Guadalajara Aktiv 125 / 140 40% 2 03.09.2026 -
Agustín Palavecino Cruz Azul Aktiv 137 / 135 40% 1 03.09.2026 -
Brian Gutiérrez Guadalajara Aktiv 128 / 128 40% 2 01.09.2026 -
Camilo Martinez Cortulua Aktiv 117 / 130 40% 1 01.09.2026 -
Samuel Velásquez Atletico Nacional Aktiv 117 / 129 40% 2 30.08.2026 -
Bastián Yáñez O'Higgins Aktiv 110 / 106 40% 1 30.08.2026 -
Yeferson Rodallega Envigado Aktiv 115 / 110 40% 1 30.08.2026 -
Leroy Sané Galatasaray Aktiv 149 / 145 40% 1 29.08.2026 -
Fidel Ambríz Monterrey Aktiv 127 / 122 40% 1 28.08.2026 -
Juan Sierra La Equidad Aktiv 125 / 121 40% 1 28.08.2026 -
Nicolás Castro Toluca Aktiv 124 / 117 40% 2 27.08.2026 -
Milton Zanotti Rosario Central Aktiv 100 / 103 30% 1 / 1m 26.08.2026 -
Tijjani Reijnders Al-Qadisiyah Aktiv 157 / 170 40% 1 26.08.2026 -
Carlos Jimenez Veracruz Aktiv 117 / 128 40% 1 24.08.2026 -
César Araújo Tigres Aktiv 121 / 135 40% 1 24.08.2026 -
Sebastián Córdova Pumas UNAM Aktiv 128 / 129 40% 2 23.08.2026 -
Alejandro Zendejas Club America Aktiv 137 / 136 40% 1 23.08.2026 -
Javier Altamirano Universidad de Chile Aktiv 121 / 131 40% 1 23.08.2026 -
Alejandro Piedrahita Deportivo Pereira Aktiv 125 / 128 40% 1 22.08.2026 -
Juan Camilo Pérez Carabobo Aktiv 116 / 112 40% 1 20.08.2026 -
Christian Larotonda Caracas Aktiv 110 / 108 40% 1 20.08.2026 -
Alexis González Los Andes Aktiv 80 / 85 30% 1 / 1m 19.08.2026 -
Tomás Rodríguez Nueva Chicago Aktiv 100 / 103 42% 1 / 1m 19.08.2026 -
Diego Rossi Monterrey Aktiv 131 / 127 40% 1 17.08.2026 -
Erik Lira Cruz Azul Aktiv 135 / 131 40% 1 14.08.2026 -
Alan Varela Porto Aktiv 147 / 156 40% 1 13.08.2026 -
Givairo Read Feyenoord Aktiv 134 / 130 40% 1 13.08.2026 -
Lucas Torreira Galatasaray Aktiv 155 / 149 40% 1 11.08.2026 -
Fernando Gorriarán Tigres Aktiv 137 / 136 40% 2 10.08.2026 -
Ritsu Doan Gamba Osaka Aktiv 151 / 158 40% 1 10.08.2026 -
Alexis Vega Feyenoord Aktiv 143 / 145 40% 1 09.08.2026 -
Fredrik Aursnes Benfica Aktiv 148 / 154 40% 1 07.08.2026 -
Davinson Sánchez Galatasaray Aktiv 148 / 140 40% 1 06.08.2026 -
Miles Robinson FC Cincinnati Aktiv 134 / 136 40% 1 06.08.2026 -
Aldo López Santos Laguna Aktiv 114 / 105 40% 1 06.08.2026 -